Time;durP1;ratioP1;P1;durP2;ratioP2;P2;SDS_P1;SDS_P2;PMS_P1;PMS_P2;Temp;Humidity;BMP_temperature;BMP_pressure;BME280_temperature;BME280_humidity;BME280_pressure;Samples;Min_cycle;Max_cycle;Signal;HPM_P1;HPM_P2
2023/07/10 00:01:04;;;;;;;24.60;16.40;;;18.30;99.90;;;;;;5073984;28;20040;-54
2023/07/10 00:03:31;;;;;;;26.88;17.20;;;18.50;99.90;;;;;;5073094;28;20484;-54
2023/07/10 00:05:57;;;;;;;30.35;17.70;;;18.50;99.90;;;;;;5074952;28;20508;-55
2023/07/10 00:08:23;;;;;;;28.92;20.35;;;18.50;99.90;;;;;;5055452;28;20061;-55
2023/07/10 00:10:50;;;;;;;27.35;18.85;;;18.60;99.90;;;;;;5074446;28;20082;-55
2023/07/10 00:13:21;;;;;;;29.10;19.45;;;18.50;99.90;;;;;;5030951;28;1263976;-55
2023/07/10 00:15:49;;;;;;;27.88;17.83;;;20.70;99.90;;;;;;5074303;28;20067;-56
2023/07/10 00:18:17;;;;;;;31.10;20.77;;;18.50;99.90;;;;;;5074744;28;20465;-55
2023/07/10 00:20:45;;;;;;;30.20;20.67;;;18.60;99.90;;;;;;5075013;28;20401;-55
2023/07/10 00:23:11;;;;;;;32.83;22.92;;;18.40;99.90;;;;;;5075326;28;20615;-55
2023/07/10 00:25:37;;;;;;;37.22;22.98;;;18.50;99.90;;;;;;5075848;28;20051;-55
2023/07/10 00:28:16;;;;;;;32.20;20.58;;;18.40;99.90;;;;;;5056673;28;20410;-54
2023/07/10 00:30:42;;;;;;;36.83;23.45;;;18.40;99.90;;;;;;5056639;28;20055;-55
2023/07/10 00:33:10;;;;;;;36.72;21.35;;;18.50;99.90;;;;;;5055118;28;20461;-53
2023/07/10 00:35:36;;;;;;;36.90;23.98;;;18.50;99.90;;;;;;5074398;28;20462;-55
2023/07/10 00:38:16;;;;;;;33.05;21.52;;;18.50;99.90;;;;;;5073706;28;20489;-54
2023/07/10 00:40:45;;;;;;;32.97;22.25;;;18.20;99.90;;;;;;5074475;28;20393;-55
2023/07/10 00:43:20;;;;;;;32.08;21.27;;;18.40;99.90;;;;;;5074153;28;20044;-55
2023/07/10 00:45:48;;;;;;;38.47;24.40;;;18.50;99.90;;;;;;5075952;28;20459;-55
2023/07/10 00:48:28;;;;;;;33.45;25.05;;;18.30;99.90;;;;;;5074903;28;20047;-54
2023/07/10 00:50:56;;;;;;;26.15;20.60;;;18.40;99.90;;;;;;5075437;28;20381;-55
2023/07/10 00:53:29;;;;;;;30.88;22.30;;;18.50;99.90;;;;;;5074902;28;20097;-55
2023/07/10 00:56:00;;;;;;;25.65;20.35;;;18.30;99.90;;;;;;5075287;28;20044;-56
2023/07/10 00:58:37;;;;;;;37.70;23.80;;;18.40;99.90;;;;;;5074992;28;20071;-55
2023/07/10 01:01:08;;;;;;;31.83;22.10;;;18.40;99.90;;;;;;5074526;28;20204;-53
2023/07/10 01:03:35;;;;;;;29.42;20.83;;;18.20;99.90;;;;;;5074394;28;20059;-55
2023/07/10 01:06:12;;;;;;;24.20;20.33;;;18.20;99.90;;;;;;5075635;28;20332;-55
2023/07/10 01:08:42;;;;;;;26.65;20.45;;;18.30;99.90;;;;;;5074878;28;20480;-55
2023/07/10 01:11:08;;;;;;;31.90;23.02;;;18.10;99.90;;;;;;5073768;28;20082;-55
2023/07/10 01:13:37;;;;;;;46.67;25.73;;;18.00;99.90;;;;;;5073519;28;20040;-54
2023/07/10 01:16:03;;;;;;;32.65;23.70;;;18.10;99.90;;;;;;5073933;28;20164;-55
2023/07/10 01:18:29;;;;;;;40.83;25.33;;;18.00;99.90;;;;;;5054351;28;20044;-55
2023/07/10 01:21:10;;;;;;;40.17;26.38;;;18.00;99.90;;;;;;5074492;28;20396;-54
2023/07/10 01:23:36;;;;;;;40.80;26.77;;;17.90;99.90;;;;;;5074629;28;20039;-53
2023/07/10 01:26:03;;;;;;;33.03;21.95;;;17.90;99.90;;;;;;5074102;28;20044;-54
2023/07/10 01:28:33;;;;;;;28.35;20.33;;;17.90;99.90;;;;;;5073217;28;20051;-56
2023/07/10 01:31:03;;;;;;;30.48;21.02;;;17.80;99.90;;;;;;5055432;28;20056;-54
2023/07/10 01:33:42;;;;;;;28.20;21.75;;;17.70;99.90;;;;;;5072652;28;20043;-55
2023/07/10 01:36:10;;;;;;;32.60;23.63;;;17.70;99.90;;;;;;5072843;28;20048;-54
2023/07/10 01:38:45;;;;;;;36.72;23.58;;;17.60;99.90;;;;;;5073173;28;20032;-54
2023/07/10 01:41:39;;;;;;;31.58;22.77;;;17.70;99.90;;;;;;5073639;28;20043;-55
2023/07/10 01:44:27;;;;;;;32.88;23.83;;;17.60;99.90;;;;;;5072084;28;20048;-54
2023/07/10 01:46:53;;;;;;;28.00;22.23;;;17.60;99.90;;;;;;5072597;28;20477;-54
2023/07/10 01:49:51;;;;;;;40.05;27.02;;;17.70;99.90;;;;;;5072684;28;20392;-54
2023/07/10 01:52:19;;;;;;;30.17;22.42;;;17.70;99.90;;;;;;5070229;28;20105;-54
2023/07/10 01:54:45;;;;;;;40.45;27.65;;;17.50;99.90;;;;;;5073214;28;20127;-54
2023/07/10 01:57:13;;;;;;;44.22;28.65;;;17.60;99.90;;;;;;5054117;28;20445;-53
2023/07/10 01:59:39;;;;;;;43.65;29.63;;;17.60;99.90;;;;;;5073456;28;20502;-54
2023/07/10 02:02:05;;;;;;;38.55;27.25;;;17.80;99.90;;;;;;5072881;28;20143;-55
2023/07/10 02:04:31;;;;;;;45.55;30.75;;;17.60;99.90;;;;;;5072961;28;20138;-53
2023/07/10 02:06:57;;;;;;;36.88;25.95;;;17.80;99.90;;;;;;5074051;28;20488;-54
2023/07/10 02:09:25;;;;;;;35.47;25.63;;;17.70;99.90;;;;;;5073913;28;20055;-54
2023/07/10 02:11:51;;;;;;;36.65;26.13;;;17.60;99.90;;;;;;5073364;28;20481;-54
2023/07/10 02:14:18;;;;;;;36.83;27.67;;;17.50;99.90;;;;;;5073444;28;20170;-54
2023/07/10 02:16:44;;;;;;;46.20;30.17;;;17.60;99.90;;;;;;5074038;28;20060;-52
2023/07/10 02:19:10;;;;;;;35.15;26.65;;;17.60;99.90;;;;;;5073116;28;20077;-55
2023/07/10 02:21:36;;;;;;;39.35;28.33;;;17.70;99.90;;;;;;5073627;28;20266;-54
2023/07/10 02:24:02;;;;;;;32.90;26.90;;;17.50;99.90;;;;;;5073928;28;20048;-53
2023/07/10 02:26:29;;;;;;;42.20;31.15;;;17.60;99.90;;;;;;5073720;28;20287;-54
2023/07/10 02:28:57;;;;;;;48.90;32.30;;;17.40;99.90;;;;;;5073332;28;20072;-54
2023/07/10 02:31:23;;;;;;;29.00;23.67;;;17.40;99.90;;;;;;5072559;28;20504;-54
2023/07/10 02:33:49;;;;;;;31.67;24.05;;;17.50;99.90;;;;;;5054716;28;20040;-53
2023/07/10 02:36:15;;;;;;;30.58;23.75;;;17.40;99.90;;;;;;5072328;28;20436;-54
2023/07/10 02:38:41;;;;;;;32.67;24.20;;;17.40;99.90;;;;;;5054669;28;20040;-54
2023/07/10 02:41:07;;;;;;;29.90;24.85;;;17.70;99.90;;;;;;5072802;28;20074;-54
2023/07/10 02:43:32;;;;;;;31.27;24.02;;;17.40;99.90;;;;;;5073181;28;20054;-53
2023/07/10 02:45:58;;;;;;;29.35;22.98;;;17.40;99.90;;;;;;5072094;28;20054;-54
2023/07/10 02:48:24;;;;;;;42.95;28.88;;;17.60;99.90;;;;;;5071368;28;20598;-53
2023/07/10 02:50:49;;;;;;;43.95;30.55;;;17.40;99.90;;;;;;5072348;28;20531;-53
2023/07/10 02:53:15;;;;;;;36.63;27.90;;;17.50;99.90;;;;;;5072027;28;20048;-53
2023/07/10 02:55:41;;;;;;;35.78;27.48;;;17.50;99.90;;;;;;5072852;28;20089;-54
2023/07/10 02:58:07;;;;;;;38.50;28.30;;;17.50;99.90;;;;;;5072906;28;20052;-53
2023/07/10 03:00:33;;;;;;;43.20;31.30;;;17.70;99.90;;;;;;5072414;28;20373;-53
2023/07/10 03:02:59;;;;;;;41.83;29.77;;;17.50;99.90;;;;;;5071040;28;20109;-54
2023/07/10 03:05:26;;;;;;;38.53;27.35;;;17.50;99.90;;;;;;5071333;28;20127;-52
2023/07/10 03:07:52;;;;;;;36.25;27.23;;;17.50;99.90;;;;;;5072278;28;20036;-52
2023/07/10 03:10:19;;;;;;;36.05;25.38;;;17.50;99.90;;;;;;5073468;28;20052;-53
2023/07/10 03:12:46;;;;;;;30.30;23.10;;;17.60;99.90;;;;;;5073450;28;20059;-54
2023/07/10 03:15:12;;;;;;;32.17;25.50;;;17.40;99.90;;;;;;5054771;28;20852;-54
2023/07/10 03:17:38;;;;;;;34.45;24.83;;;17.70;99.90;;;;;;5072659;28;20039;-54
2023/07/10 03:20:05;;;;;;;38.85;28.50;;;17.50;99.90;;;;;;5071594;28;20044;-54
2023/07/10 03:22:30;;;;;;;31.90;23.27;;;17.50;99.90;;;;;;5055544;28;20036;-52
2023/07/10 03:24:56;;;;;;;23.27;20.05;;;17.60;99.90;;;;;;5073480;28;20054;-52
2023/07/10 03:27:23;;;;;;;27.40;17.63;;;17.70;99.90;;;;;;5073187;28;20076;-54
2023/07/10 03:29:49;;;;;;;22.98;16.10;;;17.70;99.90;;;;;;5072399;28;20043;-54
2023/07/10 03:32:15;;;;;;;18.40;13.07;;;17.40;99.90;;;;;;5074216;28;20048;-53
2023/07/10 03:34:40;;;;;;;18.73;14.02;;;17.40;99.90;;;;;;5071648;28;20154;-53
2023/07/10 03:37:07;;;;;;;19.85;12.98;;;17.50;99.90;;;;;;5072885;28;20646;-54
2023/07/10 03:39:32;;;;;;;19.52;13.82;;;17.40;99.90;;;;;;5071937;28;20533;-54
2023/07/10 03:41:58;;;;;;;17.08;12.27;;;17.50;99.90;;;;;;5072484;28;20036;-54
2023/07/10 03:44:24;;;;;;;16.63;13.18;;;17.30;99.90;;;;;;5075742;28;20036;-54
2023/07/10 03:46:50;;;;;;;18.05;12.30;;;17.40;99.90;;;;;;5075300;28;20066;-52
2023/07/10 03:49:15;;;;;;;18.65;13.77;;;17.30;99.90;;;;;;5074141;28;20060;-54
2023/07/10 03:51:41;;;;;;;19.45;15.50;;;17.20;99.90;;;;;;5075504;28;20425;-53
2023/07/10 03:54:10;;;;;;;25.25;14.30;;;17.10;99.90;;;;;;5075016;28;20121;-55
2023/07/10 03:56:36;;;;;;;22.42;15.32;;;17.00;99.90;;;;;;5075388;28;20040;-53
2023/07/10 03:59:05;;;;;;;18.55;13.57;;;17.30;99.90;;;;;;5074822;28;20040;-53
2023/07/10 04:01:31;;;;;;;22.13;14.95;;;17.00;99.90;;;;;;5074390;28;20075;-54
2023/07/10 04:03:56;;;;;;;20.15;14.68;;;17.10;99.90;;;;;;5056751;28;20056;-54
2023/07/10 04:06:22;;;;;;;21.17;14.85;;;17.20;99.90;;;;;;5073926;28;20055;-54
2023/07/10 04:08:48;;;;;;;19.52;15.73;;;17.30;99.90;;;;;;5074381;28;20130;-52
2023/07/10 04:11:19;;;;;;;19.60;16.30;;;17.20;99.90;;;;;;5074414;28;20787;-54
2023/07/10 04:13:46;;;;;;;19.02;15.80;;;17.30;99.90;;;;;;5074069;28;20048;-54
2023/07/10 04:16:12;;;;;;;22.50;15.85;;;17.30;99.90;;;;;;5075861;28;20056;-55
2023/07/10 04:18:39;;;;;;;19.25;14.75;;;17.30;99.90;;;;;;5074663;28;20054;-54
2023/07/10 04:21:07;;;;;;;17.85;15.05;;;17.20;99.90;;;;;;5056168;28;20040;-54
2023/07/10 04:23:33;;;;;;;18.15;12.82;;;17.30;99.90;;;;;;5074878;28;20040;-54
2023/07/10 04:25:58;;;;;;;16.63;11.40;;;17.40;99.90;;;;;;5058302;28;20124;-54
2023/07/10 04:28:24;;;;;;;17.73;12.88;;;17.60;99.90;;;;;;5056629;28;20109;-54
2023/07/10 04:30:51;;;;;;;12.65;9.27;;;17.50;99.90;;;;;;5074154;28;20040;-55
2023/07/10 04:33:18;;;;;;;18.58;10.93;;;17.40;99.90;;;;;;5073062;28;20553;-52
2023/07/10 04:35:51;;;;;;;12.32;8.88;;;17.40;99.90;;;;;;5076326;28;20504;-54
2023/07/10 04:38:16;;;;;;;14.18;9.90;;;17.50;99.90;;;;;;5074788;28;20734;-54
2023/07/10 04:40:55;;;;;;;13.70;8.90;;;20.00;99.90;;;;;;5058404;28;20038;-54
2023/07/10 04:43:21;;;;;;;16.38;9.48;;;17.40;99.90;;;;;;5074002;28;20062;-54
2023/07/10 04:45:48;;;;;;;15.18;8.95;;;17.60;99.90;;;;;;5075333;28;20050;-54
2023/07/10 04:48:14;;;;;;;10.93;8.05;;;17.50;99.90;;;;;;5056682;28;20580;-54
2023/07/10 04:50:43;;;;;;;12.63;7.85;;;17.40;99.90;;;;;;5074901;28;20412;-52
2023/07/10 04:53:09;;;;;;;12.00;7.75;;;17.60;99.90;;;;;;5073763;28;20089;-54
2023/07/10 04:55:35;;;;;;;14.93;9.10;;;17.60;99.90;;;;;;5074403;28;20028;-53
2023/07/10 04:58:01;;;;;;;11.45;7.70;;;17.60;99.90;;;;;;5056245;28;20180;-54
2023/07/10 05:00:27;;;;;;;10.45;7.00;;;17.70;99.90;;;;;;5075390;28;20120;-54
2023/07/10 05:02:52;;;;;;;10.65;6.25;;;17.60;99.90;;;;;;5074560;28;20036;-53
2023/07/10 05:05:18;;;;;;;10.75;5.68;;;17.70;99.90;;;;;;5073771;28;20075;-53
2023/07/10 05:07:44;;;;;;;11.18;5.35;;;17.60;99.90;;;;;;5074776;28;20589;-55
2023/07/10 05:10:10;;;;;;;10.95;4.28;;;17.70;99.90;;;;;;5074710;28;20154;-53
2023/07/10 05:12:35;;;;;;;11.02;4.43;;;17.60;99.90;;;;;;5073822;28;20058;-54
2023/07/10 05:15:01;;;;;;;10.88;4.57;;;17.60;99.90;;;;;;5038545;28;20393;-55
2023/07/10 05:17:27;;;;;;;9.85;5.45;;;17.80;99.90;;;;;;5073497;28;20050;-55
2023/07/10 05:19:52;;;;;;;9.15;4.50;;;17.70;99.90;;;;;;5073400;28;20089;-55
2023/07/10 05:22:18;;;;;;;8.48;3.85;;;17.60;99.90;;;;;;5073671;28;20042;-54
2023/07/10 05:24:44;;;;;;;11.40;4.30;;;17.80;99.90;;;;;;5073431;28;20032;-54
2023/07/10 05:27:09;;;;;;;9.30;4.07;;;18.00;99.90;;;;;;5073297;28;20044;-55
2023/07/10 05:29:35;;;;;;;9.95;4.00;;;17.90;99.90;;;;;;5073292;28;20046;-55
2023/07/10 05:32:01;;;;;;;7.65;4.00;;;18.10;99.90;;;;;;5073163;28;20678;-55
2023/07/10 05:34:27;;;;;;;8.15;3.70;;;18.00;99.90;;;;;;5072267;28;20518;-53
2023/07/10 05:36:54;;;;;;;11.23;4.28;;;18.20;99.90;;;;;;5053911;28;20146;-54
2023/07/10 05:39:20;;;;;;;8.15;3.80;;;18.20;99.90;;;;;;5054276;28;20513;-53
2023/07/10 05:41:45;;;;;;;8.90;3.33;;;18.10;99.90;;;;;;5072055;28;20040;-55
2023/07/10 05:44:11;;;;;;;7.18;3.50;;;18.00;99.90;;;;;;5054621;28;20216;-55
2023/07/10 05:46:37;;;;;;;7.72;3.53;;;18.20;99.90;;;;;;5072718;28;20044;-56
2023/07/10 05:49:02;;;;;;;13.05;4.35;;;18.00;99.90;;;;;;5072741;28;20040;-56
2023/07/10 05:51:28;;;;;;;11.05;4.10;;;18.30;99.90;;;;;;5072966;28;20044;-56
2023/07/10 05:53:56;;;;;;;9.98;4.53;;;18.10;99.90;;;;;;5072769;28;20096;-55
2023/07/10 05:56:23;;;;;;;8.85;3.95;;;18.20;99.90;;;;;;5073696;28;20048;-56
2023/07/10 05:58:50;;;;;;;12.20;4.57;;;18.10;99.90;;;;;;5037756;28;20055;-55
2023/07/10 06:01:15;;;;;;;9.77;4.65;;;18.20;99.90;;;;;;5072785;28;24394;-56
2023/07/10 06:03:43;;;;;;;8.77;4.82;;;19.80;99.90;;;;;;5072538;28;20104;-55
2023/07/10 06:06:09;;;;;;;8.85;3.92;;;18.20;99.90;;;;;;5071910;28;20040;-55
2023/07/10 06:08:36;;;;;;;19.80;6.57;;;18.00;99.90;;;;;;5072101;28;20079;-56
2023/07/10 06:11:02;;;;;;;15.52;4.47;;;18.10;99.90;;;;;;5072709;28;20394;-55
2023/07/10 06:13:28;;;;;;;13.73;4.50;;;18.40;99.90;;;;;;5073233;28;20555;-57
2023/07/10 06:15:56;;;;;;;9.80;3.90;;;18.30;99.90;;;;;;5074420;28;20127;-56
2023/07/10 06:18:23;;;;;;;12.38;4.32;;;18.50;99.90;;;;;;5073847;28;20069;-55
2023/07/10 06:20:54;;;;;;;10.85;4.95;;;18.80;99.90;;;;;;5073719;28;20051;-56
2023/07/10 06:23:21;;;;;;;8.07;3.40;;;19.30;99.90;;;;;;5072606;28;20054;-56
2023/07/10 06:25:47;;;;;;;8.75;3.47;;;19.70;99.90;;;;;;5074975;28;20044;-63
2023/07/10 06:28:13;;;;;;;9.48;3.63;;;19.90;99.90;;;;;;5074178;28;20554;-63
2023/07/10 06:30:41;;;;;;;6.63;2.63;;;20.00;99.90;;;;;;5055168;28;20043;-63
2023/07/10 06:33:07;;;;;;;9.02;3.22;;;20.20;99.90;;;;;;5073451;28;20157;-63
2023/07/10 06:35:32;;;;;;;8.60;3.17;;;20.20;99.90;;;;;;5073237;28;20531;-63
2023/07/10 06:37:58;;;;;;;8.05;2.60;;;20.20;99.90;;;;;;5073162;28;20131;-64
2023/07/10 06:40:24;;;;;;;12.93;4.50;;;20.30;99.90;;;;;;5073480;28;20675;-63
2023/07/10 06:42:49;;;;;;;10.63;2.80;;;20.10;99.90;;;;;;5073171;28;20135;-62
2023/07/10 06:45:15;;;;;;;9.60;3.10;;;20.00;99.90;;;;;;5073653;28;20048;-64
2023/07/10 06:47:43;;;;;;;14.18;3.63;;;20.20;99.90;;;;;;5072650;28;20397;-63
2023/07/10 06:50:11;;;;;;;10.98;3.30;;;20.20;99.90;;;;;;5073059;28;20557;-63
2023/07/10 06:52:42;;;;;;;13.13;3.35;;;20.50;99.90;;;;;;5055727;28;20032;-63
2023/07/10 06:55:10;;;;;;;8.95;2.80;;;20.90;99.90;;;;;;5055016;28;20044;-64
2023/07/10 06:57:36;;;;;;;9.27;3.47;;;23.20;99.90;;;;;;5072223;28;20050;-63
2023/07/10 07:00:03;;;;;;;9.55;3.03;;;20.60;99.90;;;;;;5072338;28;20075;-63
2023/07/10 07:02:29;;;;;;;8.60;2.45;;;20.60;99.90;;;;;;5054501;28;20036;-62
2023/07/10 07:04:55;;;;;;;8.30;2.65;;;20.50;99.90;;;;;;5036658;28;20754;-62
2023/07/10 07:07:20;;;;;;;10.02;2.92;;;20.80;99.90;;;;;;5053038;28;20044;-63
2023/07/10 07:09:46;;;;;;;6.80;2.55;;;20.90;99.90;;;;;;5071762;28;20044;-63
2023/07/10 07:12:12;;;;;;;9.40;2.53;;;21.40;99.90;;;;;;5069102;28;20060;-62
2023/07/10 07:14:38;;;;;;;9.95;2.90;;;21.60;99.90;;;;;;5071734;28;20052;-63
2023/07/10 07:17:05;;;;;;;13.02;3.25;;;22.30;99.90;;;;;;5071621;28;20527;-62
2023/07/10 07:19:31;;;;;;;10.77;3.05;;;23.10;99.90;;;;;;5074908;28;20036;-63
2023/07/10 07:21:58;;;;;;;8.13;2.40;;;23.60;99.90;;;;;;5075567;28;20092;-63
2023/07/10 07:24:24;;;;;;;7.93;2.72;;;24.90;99.90;;;;;;5057088;28;20122;-63
2023/07/10 07:26:50;;;;;;;9.70;2.72;;;26.20;99.90;;;;;;5076326;28;20512;-63
2023/07/10 07:29:15;;;;;;;8.93;2.42;;;27.00;99.90;;;;;;5075393;28;20148;-63
2023/07/10 07:31:41;;;;;;;8.80;2.50;;;27.50;99.90;;;;;;5074425;28;20032;-63
2023/07/10 07:34:07;;;;;;;11.07;3.00;;;27.60;99.90;;;;;;5074966;28;20117;-63
2023/07/10 07:36:34;;;;;;;7.47;2.90;;;27.60;99.90;;;;;;5056717;28;20079;-63
2023/07/10 07:39:04;;;;;;;9.82;2.40;;;28.20;99.90;;;;;;5074810;28;20048;-63
2023/07/10 07:41:33;;;;;;;9.55;2.70;;;27.90;99.90;;;;;;5074016;28;20048;-63
2023/07/10 07:44:03;;;;;;;7.15;2.58;;;27.20;99.90;;;;;;5075017;28;20036;-63
2023/07/10 07:46:29;;;;;;;10.40;2.53;;;27.10;99.90;;;;;;5074977;28;20511;-63
2023/07/10 07:48:55;;;;;;;12.57;2.83;;;27.80;99.90;;;;;;5056856;28;20508;-63
2023/07/10 07:51:21;;;;;;;7.85;2.10;;;28.20;99.90;;;;;;5074981;28;20062;-63
2023/07/10 07:53:47;;;;;;;7.53;1.90;;;28.70;99.90;;;;;;5058054;28;20043;-63
2023/07/10 07:56:13;;;;;;;11.98;3.03;;;28.80;99.90;;;;;;5059016;28;20220;-64
2023/07/10 07:58:38;;;;;;;7.32;2.05;;;29.50;99.90;;;;;;5075358;28;20052;-63
2023/07/10 08:01:04;;;;;;;8.57;2.22;;;29.40;99.90;;;;;;5074485;28;20083;-63
2023/07/10 08:03:32;;;;;;;8.25;2.03;;;29.50;99.90;;;;;;5075943;28;20055;-64
2023/07/10 08:05:57;;;;;;;9.70;2.40;;;29.40;99.90;;;;;;5075945;28;20516;-63
2023/07/10 08:08:24;;;;;;;7.93;2.28;;;29.20;99.90;;;;;;5074499;28;20043;-63
2023/07/10 08:10:50;;;;;;;7.50;2.17;;;28.60;99.90;;;;;;5074210;28;20208;-63
2023/07/10 08:13:18;;;;;;;10.50;2.67;;;29.20;99.90;;;;;;5074776;28;20075;-63
2023/07/10 08:15:44;;;;;;;8.45;2.53;;;29.80;99.90;;;;;;5074308;28;20452;-63
2023/07/10 08:18:10;;;;;;;8.38;2.40;;;29.70;99.90;;;;;;5073557;28;20044;-63
2023/07/10 08:20:36;;;;;;;8.50;2.13;;;30.30;99.90;;;;;;5073656;28;20075;-62
2023/07/10 08:23:04;;;;;;;9.23;2.33;;;30.00;99.90;;;;;;5073626;28;20039;-63
2023/07/10 08:25:30;;;;;;;8.63;2.05;;;29.30;99.90;;;;;;5074539;28;20040;-63
2023/07/10 08:27:59;;;;;;;9.52;2.38;;;29.00;99.90;;;;;;5074956;28;20366;-63
2023/07/10 08:30:26;;;;;;;7.95;2.72;;;28.60;99.90;;;;;;5073756;28;20144;-63
2023/07/10 08:32:51;;;;;;;9.13;2.35;;;27.80;99.90;;;;;;5073604;28;20035;-63
2023/07/10 08:35:17;;;;;;;9.13;2.50;;;27.10;99.90;;;;;;5074407;28;20066;-63
2023/07/10 08:37:43;;;;;;;10.75;2.38;;;27.20;99.90;;;;;;5074972;28;20036;-64
2023/07/10 08:40:25;;;;;;;10.30;2.70;;;27.40;99.90;;;;;;5074125;28;20078;-63
2023/07/10 08:42:50;;;;;;;12.32;3.10;;;27.20;99.90;;;;;;5073284;28;20606;-63
2023/07/10 08:45:33;;;;;;;9.88;2.50;;;27.10;99.90;;;;;;5074582;28;20044;-63
2023/07/10 08:48:22;;;;;;;10.32;3.17;;;26.70;99.90;;;;;;5073065;28;20043;-63
2023/07/10 08:50:48;;;;;;;13.52;2.90;;;26.10;99.90;;;;;;5073161;28;20051;-63
2023/07/10 08:53:23;;;;;;;10.23;2.90;;;25.80;99.90;;;;;;5055088;28;20089;-63
2023/07/10 08:56:04;;;;;;;9.15;2.30;;;25.50;99.90;;;;;;5073885;28;20028;-63
2023/07/10 08:58:36;;;;;;;9.30;2.97;;;24.10;99.90;;;;;;5073800;28;20077;-62
2023/07/10 09:01:08;;;;;;;8.65;2.20;;;25.30;99.90;;;;;;5072898;28;20044;-63
2023/07/10 09:03:38;;;;;;;9.15;2.58;;;25.30;99.90;;;;;;5072879;28;20544;-62
2023/07/10 09:06:04;;;;;;;8.45;2.20;;;25.50;99.90;;;;;;5055720;28;20036;-63
2023/07/10 09:08:32;;;;;;;12.10;2.80;;;25.60;99.90;;;;;;5073783;28;20048;-64
2023/07/10 09:11:02;;;;;;;11.98;2.63;;;25.80;99.90;;;;;;5056161;28;20032;-63
2023/07/10 09:13:40;;;;;;;11.50;2.70;;;25.80;99.90;;;;;;5074476;28;20415;-63
2023/07/10 09:16:14;;;;;;;12.20;3.30;;;25.00;99.90;;;;;;5073545;28;20109;-63
2023/07/10 09:19:12;;;;;;;12.18;3.35;;;24.50;99.90;;;;;;5054518;28;20628;-64
2023/07/10 09:21:40;;;;;;;13.73;3.55;;;24.10;99.90;;;;;;5074565;28;20468;-63
2023/07/10 09:24:11;;;;;;;13.88;3.95;;;23.70;99.90;;;;;;5074027;28;20110;-65
2023/07/10 09:26:38;;;;;;;21.90;4.45;;;23.70;99.90;;;;;;5074327;28;20044;-63
2023/07/10 09:29:10;;;;;;;13.32;2.90;;;23.90;99.90;;;;;;5074268;28;20048;-63
2023/07/10 09:31:54;;;;;;;11.48;3.40;;;23.80;99.90;;;;;;5074609;28;20453;-63
2023/07/10 09:34:28;;;;;;;11.07;3.30;;;24.50;99.90;;;;;;5073541;28;20062;-53
2023/07/10 09:36:57;;;;;;;9.73;2.92;;;24.20;99.90;;;;;;5074324;28;20073;-55
2023/07/10 09:39:31;;;;;;;13.88;3.63;;;24.10;99.90;;;;;;5074039;28;20036;-55
2023/07/10 09:41:58;;;;;;;13.50;3.33;;;24.00;99.90;;;;;;5074237;28;20093;-54
2023/07/10 09:44:35;;;;;;;12.20;2.67;;;24.00;99.90;;;;;;5073915;28;20109;-53
2023/07/10 09:47:10;;;;;;;10.15;2.60;;;23.90;99.90;;;;;;5074391;28;20040;-54
2023/07/10 09:49:56;;;;;;;11.40;2.35;;;23.70;99.90;;;;;;5072516;28;20070;-54
2023/07/10 09:52:30;;;;;;;16.40;3.25;;;23.50;99.90;;;;;;5072490;28;20227;-55
2023/07/10 09:55:14;;;;;;;10.82;2.85;;;24.00;99.90;;;;;;5072404;28;20036;-55
2023/07/10 09:58:10;;;;;;;16.85;3.38;;;24.40;99.90;;;;;;5074584;28;20048;-54
2023/07/10 10:00:43;;;;;;;14.13;2.33;;;24.80;99.90;;;;;;5071133;28;20520;-53
2023/07/10 10:03:26;;;;;;;12.75;2.70;;;24.90;99.90;;;;;;5073001;28;20133;-55
2023/07/10 10:05:56;;;;;;;12.05;2.42;;;24.90;99.90;;;;;;5073016;28;20101;-55
2023/07/10 10:08:27;;;;;;;11.82;2.70;;;24.60;99.90;;;;;;5071791;28;20543;-54
2023/07/10 10:11:08;;;;;;;12.27;2.80;;;24.40;99.90;;;;;;5073272;28;20499;-54
2023/07/10 10:14:00;;;;;;;10.98;2.60;;;24.20;99.90;;;;;;5072118;28;20562;-55
2023/07/10 10:16:45;;;;;;;11.20;3.10;;;24.40;99.90;;;;;;5066097;28;20453;-54
2023/07/10 10:19:22;;;;;;;13.93;2.50;;;24.30;99.90;;;;;;5071542;28;20044;-53
2023/07/10 10:21:48;;;;;;;12.63;2.30;;;24.20;99.90;;;;;;5073005;28;21144;-53
2023/07/10 10:24:14;;;;;;;9.52;2.78;;;24.40;99.90;;;;;;5072504;28;20064;-54
2023/07/10 10:27:09;;;;;;;13.77;2.92;;;24.60;99.90;;;;;;5073100;28;20523;-53
2023/07/10 10:30:09;;;;;;;10.48;2.53;;;25.00;99.90;;;;;;5073202;28;20134;-55
2023/07/10 10:32:44;;;;;;;13.82;3.03;;;24.90;99.90;;;;;;5072488;28;20093;-53
2023/07/10 10:35:22;;;;;;;9.95;2.40;;;25.00;99.90;;;;;;5071685;28;20151;-54
2023/07/10 10:38:35;;;;;;;9.68;2.67;;;24.70;99.90;;;;;;5072039;28;20469;-54
2023/07/10 10:41:19;;;;;;;9.52;1.98;;;24.30;99.90;;;;;;5072310;28;20520;-55
2023/07/10 10:44:03;;;;;;;10.77;2.45;;;24.30;99.90;;;;;;5074018;28;20109;-55
2023/07/10 10:46:47;;;;;;;12.52;2.55;;;24.80;99.90;;;;;;5072825;28;20300;-55
2023/07/10 10:49:28;;;;;;;12.07;2.60;;;25.10;99.90;;;;;;5072929;28;20912;-55
2023/07/10 10:52:28;;;;;;;8.33;2.00;;;25.30;99.90;;;;;;5073255;28;20097;-54
2023/07/10 10:55:31;;;;;;;11.45;2.75;;;25.60;99.90;;;;;;5072978;28;20056;-54
2023/07/10 10:58:29;;;;;;;10.77;2.72;;;25.70;99.90;;;;;;5078216;28;20055;-55
2023/07/10 11:01:14;;;;;;;9.13;2.00;;;25.40;99.90;;;;;;5077140;28;20044;-55
2023/07/10 11:03:45;;;;;;;9.80;2.60;;;25.70;99.90;;;;;;5077449;28;20091;-54
2023/07/10 11:06:28;;;;;;;12.63;2.75;;;25.50;99.90;;;;;;5077998;28;20058;-55
2023/07/10 11:08:57;;;;;;;14.23;2.88;;;25.50;99.90;;;;;;5077311;28;20036;-54
2023/07/10 11:11:36;;;;;;;11.63;2.65;;;25.80;99.90;;;;;;5076375;28;20043;-53
2023/07/10 11:14:04;;;;;;;10.60;2.47;;;25.90;99.90;;;;;;5077333;28;20040;-55
2023/07/10 11:16:31;;;;;;;10.57;2.40;;;25.60;99.90;;;;;;5075545;28;20044;-55
2023/07/10 11:18:58;;;;;;;8.55;2.22;;;25.60;99.90;;;;;;5075320;28;20101;-54
2023/07/10 11:21:24;;;;;;;12.40;2.45;;;25.40;99.90;;;;;;5075860;28;20094;-54
2023/07/10 11:23:50;;;;;;;8.77;2.10;;;25.00;99.90;;;;;;5075138;28;20135;-55
2023/07/10 11:26:25;;;;;;;8.20;2.47;;;25.00;99.90;;;;;;5057347;28;20433;-53
2023/07/10 11:28:53;;;;;;;10.70;3.13;;;24.80;99.90;;;;;;5076055;28;20076;-53
2023/07/10 11:31:29;;;;;;;8.52;1.95;;;24.90;99.90;;;;;;5075384;28;20384;-54
2023/07/10 11:34:14;;;;;;;10.63;2.40;;;24.70;99.90;;;;;;5075413;28;20519;-53
2023/07/10 11:36:43;;;;;;;9.13;2.05;;;24.60;99.90;;;;;;5074479;28;20044;-54
2023/07/10 11:39:26;;;;;;;11.23;2.75;;;24.30;99.90;;;;;;5075340;28;20062;-55
2023/07/10 11:41:52;;;;;;;9.20;2.00;;;24.30;99.90;;;;;;5074263;28;20377;-56
2023/07/10 11:44:31;;;;;;;9.65;2.38;;;24.40;99.90;;;;;;5075784;28;20056;-53
2023/07/10 11:47:05;;;;;;;9.23;2.30;;;24.70;99.90;;;;;;5075254;28;20059;-54
2023/07/10 11:49:40;;;;;;;8.40;2.10;;;24.60;99.90;;;;;;5073795;28;20248;-54
2023/07/10 11:52:14;;;;;;;9.95;1.92;;;24.70;99.90;;;;;;5074866;28;20576;-55
2023/07/10 11:54:41;;;;;;;8.77;1.98;;;25.00;99.90;;;;;;5074747;28;20135;-53
2023/07/10 11:57:22;;;;;;;5.68;1.83;;;24.90;99.90;;;;;;5057346;28;20056;-53
2023/07/10 12:00:01;;;;;;;7.63;2.03;;;25.10;99.90;;;;;;5075409;28;20043;-54
2023/07/10 12:02:31;;;;;;;7.97;2.15;;;25.20;99.90;;;;;;5074364;28;20032;-53
2023/07/10 12:05:15;;;;;;;6.60;1.63;;;25.30;99.90;;;;;;5054570;28;20401;-52
2023/07/10 12:07:58;;;;;;;10.77;2.78;;;25.60;99.90;;;;;;5075341;28;20113;-53
2023/07/10 12:10:27;;;;;;;7.70;1.85;;;25.80;99.90;;;;;;5076125;28;20079;-54
2023/07/10 12:12:54;;;;;;;9.05;1.70;;;26.00;99.90;;;;;;5074771;28;20509;-54
2023/07/10 12:15:20;;;;;;;6.15;1.48;;;25.90;99.90;;;;;;5075254;28;20493;-54
2023/07/10 12:17:48;;;;;;;7.28;1.75;;;25.90;99.90;;;;;;5075012;28;20051;-55
2023/07/10 12:20:28;;;;;;;8.00;1.90;;;25.90;99.90;;;;;;5075339;28;20560;-53
2023/07/10 12:23:00;;;;;;;6.97;1.80;;;26.00;99.90;;;;;;5074996;28;20317;-54
2023/07/10 12:25:25;;;;;;;9.20;2.25;;;26.10;99.90;;;;;;5074503;28;20127;-53
2023/07/10 12:27:51;;;;;;;6.50;1.70;;;25.50;99.90;;;;;;5075437;28;20032;-54
2023/07/10 12:30:26;;;;;;;7.22;1.98;;;25.50;99.90;;;;;;5075494;28;20039;-54
2023/07/10 12:32:54;;;;;;;11.10;2.05;;;25.60;99.90;;;;;;5074181;28;20135;-48
2023/07/10 12:35:30;;;;;;;6.68;1.65;;;25.80;99.90;;;;;;5074480;28;20097;-51
2023/07/10 12:37:59;;;;;;;9.75;1.85;;;25.60;99.90;;;;;;5074105;28;20528;-51
2023/07/10 12:40:27;;;;;;;7.22;1.45;;;25.90;99.90;;;;;;5074597;28;20443;-52
2023/07/10 12:42:52;;;;;;;9.18;2.35;;;25.60;99.90;;;;;;5074544;28;20519;-53
2023/07/10 12:45:20;;;;;;;8.57;1.50;;;25.60;99.90;;;;;;5074340;28;20044;-52
2023/07/10 12:47:56;;;;;;;6.95;1.73;;;25.50;99.90;;;;;;5074897;28;20541;-51
2023/07/10 12:50:36;;;;;;;7.53;1.10;;;27.20;99.90;;;;;;5073719;28;20102;-53